Terminal Aerodrome Forecast
Issued by NWS

Current Version | Previous Version | Text Only | Print | Product List | Glossary On
Versions: 1 2 3 4 5 6 7 8 9 10 11 12 13 14 15 16 17 18 19 20 21 22 23 24 25 26
000
FTUS43 KDLH 310500
TAFHIB
TAF
KHIB 310532Z 3106/0106 16003KT P6SM OVC015
     FM311000 33007KT P6SM OVC015
     FM311300 34011G18KT P6SM -SHSN SCT025 BKN050
     FM312200 02008G16KT P6SM -SHSN SCT010 BKN035
     FM010200 03006KT P6SM BKN025=

USA.gov is the U.S. government's official web portal to all federal, state and local government web resources and services.